createdAt,value
2024-04-23T00:09:51.603Z,11.5205
2024-04-23T00:20:00.886Z,11.5175
2024-04-23T00:30:09.585Z,11.5143
2024-04-23T00:40:18.434Z,11.5159
2024-04-23T00:50:27.255Z,11.5102
2024-04-23T01:00:36.105Z,11.5170
2024-04-23T01:10:44.633Z,11.5134
2024-04-23T01:20:53.372Z,11.5100
2024-04-23T01:31:02.441Z,11.5100
2024-04-23T01:41:11.596Z,11.5098
2024-04-23T01:51:20.233Z,11.5100
2024-04-23T02:01:29.227Z,11.5100
2024-04-23T02:11:37.874Z,11.5100
2024-04-23T02:21:46.527Z,11.5100
2024-04-23T02:31:57.408Z,11.5077
2024-04-23T02:42:06.495Z,11.5027
2024-04-23T02:52:15.451Z,11.5016
2024-04-23T03:02:24.359Z,11.5000
2024-04-23T03:12:33.591Z,11.5007
2024-04-23T03:22:42.504Z,11.5041
2024-04-23T03:32:51.197Z,11.5000
2024-04-23T03:42:59.524Z,11.5000
2024-04-23T03:53:08.089Z,11.5005
2024-04-23T04:03:16.719Z,11.5000
2024-04-23T04:13:25.190Z,11.5000
2024-04-23T04:23:33.735Z,11.4998
2024-04-23T04:33:42.283Z,11.4934
2024-04-23T04:43:51.000Z,11.4900
2024-04-23T04:54:00.040Z,11.4900
2024-04-23T05:04:08.721Z,11.4900
2024-04-23T05:14:18.182Z,11.4882
2024-04-23T05:24:26.824Z,11.4852
2024-04-23T05:34:35.718Z,11.4850
2024-04-23T05:44:44.385Z,11.4841
2024-04-23T05:54:52.912Z,11.4825
2024-04-23T06:05:02.766Z,11.4811
2024-04-23T06:15:11.644Z,11.4736
2024-04-23T06:25:25.707Z,11.4755
2024-04-23T06:35:34.452Z,11.4775
2024-04-23T06:45:48.359Z,11.4773
2024-04-23T06:55:57.641Z,11.4766
2024-04-23T07:06:06.751Z,11.4759
2024-04-23T07:16:15.503Z,11.4748
2024-04-23T07:26:24.744Z,11.4748
2024-04-23T07:36:33.176Z,11.4702
2024-04-23T07:46:43.266Z,11.4705
2024-04-23T07:56:51.922Z,11.4702
2024-04-23T08:07:00.512Z,11.4700
2024-04-23T08:17:10.043Z,11.4707
2024-04-23T08:27:18.631Z,11.4718
2024-04-23T08:37:27.317Z,11.4743
2024-04-23T08:47:35.809Z,11.4725
2024-04-23T08:57:44.418Z,11.4734
2024-04-23T09:07:53.335Z,11.4730
2024-04-23T09:18:01.918Z,11.4680
2024-04-23T09:28:10.978Z,11.4623
2024-04-23T09:38:20.514Z,11.4591
2024-04-23T09:48:29.231Z,11.4582
2024-04-23T09:58:38.087Z,11.4525
2024-04-23T10:08:54.067Z,11.4459
2024-04-23T10:19:02.921Z,11.4520
2024-04-23T10:29:11.793Z,11.4425
2024-04-23T10:39:20.506Z,11.4370
2024-04-23T10:49:29.098Z,11.4339
2024-04-23T10:59:37.754Z,11.4241
2024-04-23T11:09:46.181Z,11.4166
2024-04-23T11:19:54.925Z,11.4116
2024-04-23T11:30:03.596Z,11.4057
2024-04-23T11:40:12.083Z,11.4016
2024-04-23T11:50:20.631Z,11.3914
2024-04-23T12:00:29.265Z,11.3802
2024-04-23T12:10:37.945Z,11.3782
2024-04-23T12:20:46.441Z,11.3705
2024-04-23T12:30:55.131Z,11.3650
2024-04-23T12:41:03.906Z,11.3545
2024-04-23T12:51:12.693Z,11.3470
2024-04-23T13:01:26.293Z,11.3423
2024-04-23T13:11:36.142Z,11.3384
2024-04-23T13:21:51.043Z,11.3327
2024-04-23T13:31:59.677Z,11.3325
2024-04-23T13:42:08.339Z,11.3282
2024-04-23T13:52:17.145Z,11.3252
2024-04-23T14:02:25.941Z,11.3170
2024-04-23T14:12:34.601Z,11.3175
2024-04-23T14:22:44.127Z,11.3114
2024-04-23T14:32:53.019Z,11.3109
2024-04-23T14:43:03.390Z,11.3070
2024-04-23T14:53:12.176Z,11.3014
2024-04-23T15:03:20.809Z,11.3002
2024-04-23T15:13:29.471Z,11.2975
2024-04-23T15:23:38.360Z,11.2868
2024-04-23T15:33:56.442Z,11.2843
2024-04-23T15:44:14.392Z,11.2850
2024-04-23T15:54:23.946Z,11.2818
2024-04-23T16:04:45.933Z,11.2812
2024-04-23T16:15:01.567Z,11.2785
2024-04-23T16:25:14.966Z,11.2777
2024-04-23T16:36:16.971Z,11.2717
2024-04-23T16:46:28.993Z,11.2778
2024-04-23T17:40:36.583Z,11.2664
2024-04-23T17:50:33.363Z,11.2673
2024-04-23T18:33:24.723Z,11.2569
2024-04-23T18:43:08.430Z,11.2572
2024-04-23T18:53:22.152Z,11.2530
2024-04-23T19:03:32.271Z,11.2500
2024-04-23T19:14:27.620Z,11.2534
2024-04-23T19:24:08.658Z,11.2514
2024-04-23T19:34:17.222Z,11.2536
2024-04-23T19:44:26.174Z,11.2545
2024-04-23T19:54:38.555Z,11.2542
2024-04-23T20:04:55.086Z,11.2520
2024-04-23T20:15:02.691Z,11.2520
2024-04-23T20:25:11.805Z,11.2530
2024-04-23T20:35:20.698Z,11.2532
2024-04-23T20:45:29.427Z,11.2534
2024-04-23T20:55:38.259Z,11.2534
2024-04-23T21:05:53.339Z,11.2520
2024-04-23T21:16:10.574Z,11.2523
2024-04-23T21:26:24.967Z,11.2527
2024-04-23T21:36:34.064Z,11.2532
2024-04-23T21:46:42.840Z,11.2548
2024-04-23T21:56:52.125Z,11.2518
2024-04-23T22:07:01.769Z,11.2495
2024-04-23T22:17:10.732Z,11.2500
2024-04-23T22:27:19.610Z,11.2450
2024-04-23T22:37:28.268Z,11.2464
2024-04-23T22:47:37.290Z,11.2427
2024-04-23T22:57:47.923Z,11.2402
2024-04-23T23:07:57.900Z,11.2468
2024-04-23T23:18:06.670Z,11.2405
2024-04-23T23:28:15.929Z,11.2384
2024-04-23T23:38:24.741Z,11.2391
2024-04-23T23:48:33.928Z,11.2302
2024-04-23T23:58:44.102Z,11.2307
